sensor_id;sensor_type;location;lat;lon;timestamp;P1;durP1;ratioP1;P2;durP2;ratioP2
9942;SDS011;5010;45.080;7.634;2024-02-21T00:02:21;91.10;;;66.22;;
9942;SDS011;5010;45.080;7.634;2024-02-21T00:04:49;79.82;;;39.00;;
9942;SDS011;5010;45.080;7.634;2024-02-21T00:07:16;93.53;;;71.47;;
9942;SDS011;5010;45.080;7.634;2024-02-21T00:09:44;81.75;;;49.80;;
9942;SDS011;5010;45.080;7.634;2024-02-21T00:12:12;90.63;;;55.97;;
9942;SDS011;5010;45.080;7.634;2024-02-21T00:14:40;88.57;;;45.70;;
9942;SDS011;5010;45.080;7.634;2024-02-21T00:17:08;93.00;;;76.88;;
9942;SDS011;5010;45.080;7.634;2024-02-21T00:19:38;84.00;;;49.28;;
9942;SDS011;5010;45.080;7.634;2024-02-21T00:22:05;94.22;;;60.38;;
9942;SDS011;5010;45.080;7.634;2024-02-21T00:24:33;93.82;;;58.17;;
9942;SDS011;5010;45.080;7.634;2024-02-21T00:27:01;88.85;;;63.30;;
9942;SDS011;5010;45.080;7.634;2024-02-21T00:29:28;86.82;;;55.50;;
9942;SDS011;5010;45.080;7.634;2024-02-21T00:31:56;87.90;;;61.97;;
9942;SDS011;5010;45.080;7.634;2024-02-21T00:34:24;94.45;;;74.90;;
9942;SDS011;5010;45.080;7.634;2024-02-21T00:36:53;85.53;;;56.42;;
9942;SDS011;5010;45.080;7.634;2024-02-21T00:39:21;101.30;;;77.32;;
9942;SDS011;5010;45.080;7.634;2024-02-21T00:41:49;95.25;;;61.35;;
9942;SDS011;5010;45.080;7.634;2024-02-21T00:44:17;95.57;;;70.35;;
9942;SDS011;5010;45.080;7.634;2024-02-21T00:46:44;83.38;;;43.03;;
9942;SDS011;5010;45.080;7.634;2024-02-21T00:49:12;91.38;;;68.55;;
9942;SDS011;5010;45.080;7.634;2024-02-21T00:51:40;89.78;;;59.10;;
9942;SDS011;5010;45.080;7.634;2024-02-21T00:54:09;74.60;;;27.67;;
9942;SDS011;5010;45.080;7.634;2024-02-21T00:56:37;95.32;;;70.65;;
9942;SDS011;5010;45.080;7.634;2024-02-21T00:59:05;85.07;;;54.80;;
9942;SDS011;5010;45.080;7.634;2024-02-21T01:01:33;99.03;;;94.25;;
9942;SDS011;5010;45.080;7.634;2024-02-21T01:04:00;81.25;;;43.40;;
9942;SDS011;5010;45.080;7.634;2024-02-21T01:06:28;96.65;;;91.25;;
9942;SDS011;5010;45.080;7.634;2024-02-21T01:08:56;81.10;;;53.60;;
9942;SDS011;5010;45.080;7.634;2024-02-21T01:11:25;98.88;;;89.05;;
9942;SDS011;5010;45.080;7.634;2024-02-21T01:13:53;74.85;;;15.25;;
9942;SDS011;5010;45.080;7.634;2024-02-21T01:16:23;97.18;;;92.50;;
9942;SDS011;5010;45.080;7.634;2024-02-21T01:18:50;81.32;;;64.80;;
9942;SDS011;5010;45.080;7.634;2024-02-21T01:21:18;113.82;;;108.38;;
9942;SDS011;5010;45.080;7.634;2024-02-21T01:23:46;71.07;;;31.27;;
9942;SDS011;5010;45.080;7.634;2024-02-21T01:26:14;137.65;;;131.02;;
9942;SDS011;5010;45.080;7.634;2024-02-21T01:28:43;66.13;;;15.55;;
9942;SDS011;5010;45.080;7.634;2024-02-21T01:31:11;76.93;;;49.03;;
9942;SDS011;5010;45.080;7.634;2024-02-21T01:33:40;66.10;;;9.98;;
9942;SDS011;5010;45.080;7.634;2024-02-21T01:36:08;78.55;;;48.03;;
9942;SDS011;5010;45.080;7.634;2024-02-21T01:38:36;63.85;;;16.85;;
9942;SDS011;5010;45.080;7.634;2024-02-21T01:41:03;64.50;;;22.02;;
9942;SDS011;5010;45.080;7.634;2024-02-21T01:43:31;53.88;;;9.85;;
9942;SDS011;5010;45.080;7.634;2024-02-21T01:46:00;42.15;;;7.63;;
9942;SDS011;5010;45.080;7.634;2024-02-21T01:48:29;40.70;;;8.70;;
9942;SDS011;5010;45.080;7.634;2024-02-21T01:50:57;37.58;;;5.82;;
9942;SDS011;5010;45.080;7.634;2024-02-21T01:53:27;37.78;;;7.65;;
9942;SDS011;5010;45.080;7.634;2024-02-21T01:55:57;32.13;;;6.75;;
9942;SDS011;5010;45.080;7.634;2024-02-21T01:58:25;28.70;;;6.05;;
9942;SDS011;5010;45.080;7.634;2024-02-21T02:00:56;28.23;;;5.88;;
9942;SDS011;5010;45.080;7.634;2024-02-21T02:03:25;28.75;;;6.80;;
9942;SDS011;5010;45.080;7.634;2024-02-21T02:05:54;25.90;;;6.07;;
9942;SDS011;5010;45.080;7.634;2024-02-21T02:08:21;31.02;;;6.38;;
9942;SDS011;5010;45.080;7.634;2024-02-21T02:10:49;27.48;;;6.80;;
9942;SDS011;5010;45.080;7.634;2024-02-21T02:13:17;27.00;;;6.50;;
9942;SDS011;5010;45.080;7.634;2024-02-21T02:15:45;30.60;;;7.88;;
9942;SDS011;5010;45.080;7.634;2024-02-21T02:18:14;26.88;;;6.70;;
9942;SDS011;5010;45.080;7.634;2024-02-21T02:20:44;32.88;;;7.07;;
9942;SDS011;5010;45.080;7.634;2024-02-21T02:25:46;36.97;;;6.88;;
9942;SDS011;5010;45.080;7.634;2024-02-21T02:28:16;32.83;;;7.95;;
9942;SDS011;5010;45.080;7.634;2024-02-21T02:30:44;27.52;;;7.03;;
9942;SDS011;5010;45.080;7.634;2024-02-21T02:33:13;28.27;;;7.05;;
9942;SDS011;5010;45.080;7.634;2024-02-21T02:35:42;27.65;;;7.25;;
9942;SDS011;5010;45.080;7.634;2024-02-21T02:38:10;30.80;;;8.15;;
9942;SDS011;5010;45.080;7.634;2024-02-21T02:40:40;21.38;;;7.82;;
9942;SDS011;5010;45.080;7.634;2024-02-21T02:43:08;28.48;;;8.60;;
9942;SDS011;5010;45.080;7.634;2024-02-21T02:45:36;22.40;;;7.00;;
9942;SDS011;5010;45.080;7.634;2024-02-21T02:48:04;26.75;;;7.50;;
9942;SDS011;5010;45.080;7.634;2024-02-21T02:50:32;28.95;;;7.97;;
9942;SDS011;5010;45.080;7.634;2024-02-21T02:53:00;22.20;;;7.72;;
9942;SDS011;5010;45.080;7.634;2024-02-21T02:55:28;22.52;;;6.97;;
9942;SDS011;5010;45.080;7.634;2024-02-21T02:57:57;23.17;;;6.15;;
9942;SDS011;5010;45.080;7.634;2024-02-21T03:00:24;21.45;;;6.55;;
9942;SDS011;5010;45.080;7.634;2024-02-21T03:02:52;21.30;;;7.32;;
9942;SDS011;5010;45.080;7.634;2024-02-21T03:05:20;23.70;;;7.63;;
9942;SDS011;5010;45.080;7.634;2024-02-21T03:07:48;22.58;;;7.47;;
9942;SDS011;5010;45.080;7.634;2024-02-21T03:10:16;28.13;;;8.43;;
9942;SDS011;5010;45.080;7.634;2024-02-21T03:12:44;26.08;;;6.45;;
9942;SDS011;5010;45.080;7.634;2024-02-21T03:15:13;23.63;;;7.60;;
9942;SDS011;5010;45.080;7.634;2024-02-21T03:17:41;23.13;;;8.27;;
9942;SDS011;5010;45.080;7.634;2024-02-21T03:20:09;28.85;;;8.98;;
9942;SDS011;5010;45.080;7.634;2024-02-21T03:22:37;24.17;;;8.10;;
9942;SDS011;5010;45.080;7.634;2024-02-21T03:25:05;26.40;;;8.05;;
9942;SDS011;5010;45.080;7.634;2024-02-21T03:27:34;25.33;;;7.95;;
9942;SDS011;5010;45.080;7.634;2024-02-21T03:30:02;23.83;;;8.23;;
9942;SDS011;5010;45.080;7.634;2024-02-21T03:32:32;20.48;;;7.55;;
9942;SDS011;5010;45.080;7.634;2024-02-21T03:34:59;19.65;;;7.60;;
9942;SDS011;5010;45.080;7.634;2024-02-21T03:37:27;25.48;;;7.13;;
9942;SDS011;5010;45.080;7.634;2024-02-21T03:39:55;24.92;;;8.10;;
9942;SDS011;5010;45.080;7.634;2024-02-21T03:42:23;23.70;;;8.75;;
9942;SDS011;5010;45.080;7.634;2024-02-21T03:44:50;22.33;;;8.32;;
9942;SDS011;5010;45.080;7.634;2024-02-21T03:47:18;27.30;;;8.68;;
9942;SDS011;5010;45.080;7.634;2024-02-21T03:49:48;28.27;;;7.90;;
9942;SDS011;5010;45.080;7.634;2024-02-21T03:52:16;27.60;;;9.30;;
9942;SDS011;5010;45.080;7.634;2024-02-21T03:54:43;23.50;;;7.85;;
9942;SDS011;5010;45.080;7.634;2024-02-21T03:57:11;18.27;;;6.50;;
9942;SDS011;5010;45.080;7.634;2024-02-21T03:59:39;28.02;;;8.18;;
9942;SDS011;5010;45.080;7.634;2024-02-21T04:02:07;21.48;;;9.05;;
9942;SDS011;5010;45.080;7.634;2024-02-21T04:04:35;16.88;;;6.45;;
9942;SDS011;5010;45.080;7.634;2024-02-21T04:07:05;23.13;;;9.65;;
9942;SDS011;5010;45.080;7.634;2024-02-21T04:09:34;20.80;;;7.13;;
9942;SDS011;5010;45.080;7.634;2024-02-21T04:12:01;21.40;;;8.00;;
9942;SDS011;5010;45.080;7.634;2024-02-21T04:14:29;26.60;;;7.88;;
9942;SDS011;5010;45.080;7.634;2024-02-21T04:16:57;19.60;;;7.85;;
9942;SDS011;5010;45.080;7.634;2024-02-21T04:19:25;19.65;;;6.40;;
9942;SDS011;5010;45.080;7.634;2024-02-21T04:21:52;24.05;;;8.23;;
9942;SDS011;5010;45.080;7.634;2024-02-21T04:24:22;19.50;;;8.20;;
9942;SDS011;5010;45.080;7.634;2024-02-21T04:26:49;22.25;;;7.63;;
9942;SDS011;5010;45.080;7.634;2024-02-21T04:29:17;20.90;;;8.25;;
9942;SDS011;5010;45.080;7.634;2024-02-21T04:31:45;18.20;;;7.03;;
9942;SDS011;5010;45.080;7.634;2024-02-21T04:34:13;18.10;;;5.95;;
9942;SDS011;5010;45.080;7.634;2024-02-21T04:36:40;18.85;;;7.63;;
9942;SDS011;5010;45.080;7.634;2024-02-21T04:39:08;21.20;;;9.20;;
9942;SDS011;5010;45.080;7.634;2024-02-21T04:41:38;20.73;;;7.95;;
9942;SDS011;5010;45.080;7.634;2024-02-21T04:44:05;19.80;;;7.03;;
9942;SDS011;5010;45.080;7.634;2024-02-21T04:46:34;18.05;;;7.25;;
9942;SDS011;5010;45.080;7.634;2024-02-21T04:49:02;20.40;;;7.60;;
9942;SDS011;5010;45.080;7.634;2024-02-21T04:51:29;25.58;;;7.50;;
9942;SDS011;5010;45.080;7.634;2024-02-21T04:53:57;25.48;;;9.38;;
9942;SDS011;5010;45.080;7.634;2024-02-21T04:56:25;21.73;;;8.70;;
9942;SDS011;5010;45.080;7.634;2024-02-21T04:58:54;20.73;;;7.45;;
9942;SDS011;5010;45.080;7.634;2024-02-21T05:01:22;22.13;;;8.35;;
9942;SDS011;5010;45.080;7.634;2024-02-21T05:03:52;21.95;;;6.70;;
9942;SDS011;5010;45.080;7.634;2024-02-21T05:06:22;23.33;;;9.43;;
9942;SDS011;5010;45.080;7.634;2024-02-21T05:08:52;29.02;;;8.77;;
9942;SDS011;5010;45.080;7.634;2024-02-21T05:11:23;18.95;;;8.15;;
9942;SDS011;5010;45.080;7.634;2024-02-21T05:13:56;28.85;;;7.53;;
9942;SDS011;5010;45.080;7.634;2024-02-21T05:16:26;21.42;;;7.03;;
9942;SDS011;5010;45.080;7.634;2024-02-21T05:18:56;17.98;;;6.70;;
9942;SDS011;5010;45.080;7.634;2024-02-21T05:21:26;20.85;;;6.82;;
9942;SDS011;5010;45.080;7.634;2024-02-21T05:23:56;17.83;;;7.22;;
9942;SDS011;5010;45.080;7.634;2024-02-21T05:26:26;19.15;;;6.38;;
9942;SDS011;5010;45.080;7.634;2024-02-21T05:28:58;18.38;;;6.28;;
9942;SDS011;5010;45.080;7.634;2024-02-21T05:31:28;20.13;;;7.53;;
9942;SDS011;5010;45.080;7.634;2024-02-21T05:34:23;22.60;;;7.10;;
9942;SDS011;5010;45.080;7.634;2024-02-21T05:36:53;18.55;;;6.95;;
9942;SDS011;5010;45.080;7.634;2024-02-21T05:39:23;19.77;;;7.72;;
9942;SDS011;5010;45.080;7.634;2024-02-21T05:41:55;19.30;;;5.93;;
9942;SDS011;5010;45.080;7.634;2024-02-21T05:44:26;18.45;;;6.90;;
9942;SDS011;5010;45.080;7.634;2024-02-21T05:46:56;20.42;;;6.63;;
9942;SDS011;5010;45.080;7.634;2024-02-21T05:49:26;21.05;;;6.18;;
9942;SDS011;5010;45.080;7.634;2024-02-21T05:52:07;19.73;;;6.22;;
9942;SDS011;5010;45.080;7.634;2024-02-21T05:54:38;24.33;;;6.68;;
9942;SDS011;5010;45.080;7.634;2024-02-21T05:57:08;17.10;;;6.18;;
9942;SDS011;5010;45.080;7.634;2024-02-21T05:59:39;17.50;;;5.03;;
9942;SDS011;5010;45.080;7.634;2024-02-21T06:02:09;19.20;;;5.80;;
9942;SDS011;5010;45.080;7.634;2024-02-21T06:04:39;22.02;;;5.38;;
9942;SDS011;5010;45.080;7.634;2024-02-21T06:07:10;23.73;;;5.70;;
9942;SDS011;5010;45.080;7.634;2024-02-21T06:09:40;18.75;;;7.50;;
9942;SDS011;5010;45.080;7.634;2024-02-21T06:12:10;23.08;;;4.95;;
9942;SDS011;5010;45.080;7.634;2024-02-21T06:14:41;23.00;;;7.43;;
9942;SDS011;5010;45.080;7.634;2024-02-21T06:17:12;24.08;;;5.75;;
9942;SDS011;5010;45.080;7.634;2024-02-21T06:19:42;25.85;;;6.88;;
9942;SDS011;5010;45.080;7.634;2024-02-21T06:22:12;22.95;;;6.15;;
9942;SDS011;5010;45.080;7.634;2024-02-21T06:24:43;16.63;;;5.50;;
9942;SDS011;5010;45.080;7.634;2024-02-21T06:27:13;25.20;;;6.80;;
9942;SDS011;5010;45.080;7.634;2024-02-21T06:29:45;25.25;;;6.90;;
9942;SDS011;5010;45.080;7.634;2024-02-21T06:32:15;21.83;;;5.97;;
9942;SDS011;5010;45.080;7.634;2024-02-21T06:34:45;22.47;;;7.43;;
9942;SDS011;5010;45.080;7.634;2024-02-21T06:37:15;23.35;;;6.18;;
9942;SDS011;5010;45.080;7.634;2024-02-21T06:39:45;18.20;;;4.53;;
9942;SDS011;5010;45.080;7.634;2024-02-21T06:42:15;22.77;;;6.93;;
9942;SDS011;5010;45.080;7.634;2024-02-21T06:44:46;19.20;;;4.97;;
9942;SDS011;5010;45.080;7.634;2024-02-21T06:47:16;22.05;;;5.22;;
9942;SDS011;5010;45.080;7.634;2024-02-21T06:49:48;25.08;;;5.65;;
9942;SDS011;5010;45.080;7.634;2024-02-21T06:52:18;25.38;;;6.05;;
9942;SDS011;5010;45.080;7.634;2024-02-21T06:54:49;19.98;;;6.25;;
9942;SDS011;5010;45.080;7.634;2024-02-21T06:57:19;20.05;;;5.10;;
9942;SDS011;5010;45.080;7.634;2024-02-21T06:59:51;20.60;;;6.20;;
9942;SDS011;5010;45.080;7.634;2024-02-21T07:02:21;23.30;;;6.70;;
9942;SDS011;5010;45.080;7.634;2024-02-21T07:04:51;22.23;;;6.15;;
9942;SDS011;5010;45.080;7.634;2024-02-21T07:07:22;17.63;;;5.00;;
9942;SDS011;5010;45.080;7.634;2024-02-21T07:09:52;19.50;;;6.22;;
9942;SDS011;5010;45.080;7.634;2024-02-21T07:12:21;18.50;;;5.70;;
9942;SDS011;5010;45.080;7.634;2024-02-21T07:14:54;19.13;;;4.80;;
9942;SDS011;5010;45.080;7.634;2024-02-21T07:17:24;16.50;;;3.60;;
9942;SDS011;5010;45.080;7.634;2024-02-21T07:19:54;19.13;;;4.40;;
9942;SDS011;5010;45.080;7.634;2024-02-21T07:22:25;22.30;;;5.32;;
9942;SDS011;5010;45.080;7.634;2024-02-21T07:24:55;25.13;;;6.45;;
9942;SDS011;5010;45.080;7.634;2024-02-21T07:27:26;23.02;;;6.07;;
9942;SDS011;5010;45.080;7.634;2024-02-21T07:29:59;23.23;;;5.22;;
9942;SDS011;5010;45.080;7.634;2024-02-21T07:32:30;24.88;;;5.72;;
9942;SDS011;5010;45.080;7.634;2024-02-21T07:35:00;23.58;;;6.53;;
9942;SDS011;5010;45.080;7.634;2024-02-21T07:37:31;23.13;;;5.57;;
9942;SDS011;5010;45.080;7.634;2024-02-21T07:40:01;34.33;;;7.72;;
9942;SDS011;5010;45.080;7.634;2024-02-21T07:42:32;50.53;;;11.38;;
9942;SDS011;5010;45.080;7.634;2024-02-21T07:45:04;53.22;;;13.88;;
9942;SDS011;5010;45.080;7.634;2024-02-21T07:47:36;57.80;;;18.50;;
9942;SDS011;5010;45.080;7.634;2024-02-21T07:50:07;70.72;;;45.72;;
9942;SDS011;5010;45.080;7.634;2024-02-21T07:52:38;64.07;;;10.32;;
9942;SDS011;5010;45.080;7.634;2024-02-21T07:55:08;80.97;;;18.15;;
9942;SDS011;5010;45.080;7.634;2024-02-21T07:57:39;85.38;;;27.55;;
9942;SDS011;5010;45.080;7.634;2024-02-21T08:00:12;98.18;;;24.65;;
9942;SDS011;5010;45.080;7.634;2024-02-21T08:02:45;83.53;;;14.68;;
9942;SDS011;5010;45.080;7.634;2024-02-21T08:05:16;84.50;;;20.58;;
9942;SDS011;5010;45.080;7.634;2024-02-21T08:07:47;81.60;;;13.45;;
9942;SDS011;5010;45.080;7.634;2024-02-21T08:10:18;85.25;;;18.00;;
9942;SDS011;5010;45.080;7.634;2024-02-21T08:12:49;90.13;;;18.15;;
9942;SDS011;5010;45.080;7.634;2024-02-21T08:15:21;84.65;;;16.40;;
9942;SDS011;5010;45.080;7.634;2024-02-21T08:17:55;83.63;;;14.57;;
9942;SDS011;5010;45.080;7.634;2024-02-21T08:20:27;82.80;;;15.43;;
9942;SDS011;5010;45.080;7.634;2024-02-21T08:22:58;87.82;;;16.02;;
9942;SDS011;5010;45.080;7.634;2024-02-21T08:25:29;79.03;;;18.13;;
9942;SDS011;5010;45.080;7.634;2024-02-21T08:28:01;85.68;;;14.77;;
9942;SDS011;5010;45.080;7.634;2024-02-21T08:30:36;84.60;;;18.20;;
9942;SDS011;5010;45.080;7.634;2024-02-21T08:33:11;85.38;;;14.23;;
9942;SDS011;5010;45.080;7.634;2024-02-21T08:35:42;96.22;;;23.73;;
9942;SDS011;5010;45.080;7.634;2024-02-21T08:38:13;87.50;;;23.13;;
9942;SDS011;5010;45.080;7.634;2024-02-21T08:40:43;92.82;;;38.53;;
9942;SDS011;5010;45.080;7.634;2024-02-21T08:43:14;91.63;;;27.02;;
9942;SDS011;5010;45.080;7.634;2024-02-21T08:45:46;93.90;;;28.02;;
9942;SDS011;5010;45.080;7.634;2024-02-21T08:48:17;92.28;;;26.10;;
9942;SDS011;5010;45.080;7.634;2024-02-21T08:50:49;92.10;;;26.08;;
9942;SDS011;5010;45.080;7.634;2024-02-21T08:53:20;90.38;;;20.63;;
9942;SDS011;5010;45.080;7.634;2024-02-21T08:55:50;92.22;;;20.33;;
9942;SDS011;5010;45.080;7.634;2024-02-21T08:58:20;92.13;;;25.95;;
9942;SDS011;5010;45.080;7.634;2024-02-21T09:00:53;91.32;;;19.67;;
9942;SDS011;5010;45.080;7.634;2024-02-21T09:03:23;94.95;;;21.35;;
9942;SDS011;5010;45.080;7.634;2024-02-21T09:05:54;89.75;;;19.88;;
9942;SDS011;5010;45.080;7.634;2024-02-21T09:08:24;88.32;;;15.25;;
9942;SDS011;5010;45.080;7.634;2024-02-21T09:10:54;86.97;;;17.42;;
9942;SDS011;5010;45.080;7.634;2024-02-21T09:13:24;91.43;;;19.27;;
9942;SDS011;5010;45.080;7.634;2024-02-21T09:15:56;83.65;;;14.68;;
9942;SDS011;5010;45.080;7.634;2024-02-21T09:18:26;91.50;;;17.48;;
9942;SDS011;5010;45.080;7.634;2024-02-21T09:20:56;91.22;;;15.65;;
9942;SDS011;5010;45.080;7.634;2024-02-21T09:23:26;88.82;;;17.35;;
9942;SDS011;5010;45.080;7.634;2024-02-21T09:25:57;89.10;;;16.60;;
9942;SDS011;5010;45.080;7.634;2024-02-21T09:28:30;88.15;;;16.65;;
9942;SDS011;5010;45.080;7.634;2024-02-21T09:31:02;89.10;;;16.80;;
9942;SDS011;5010;45.080;7.634;2024-02-21T09:33:32;92.28;;;16.60;;
9942;SDS011;5010;45.080;7.634;2024-02-21T09:36:03;97.28;;;28.33;;
9942;SDS011;5010;45.080;7.634;2024-02-21T09:38:33;91.75;;;17.42;;
9942;SDS011;5010;45.080;7.634;2024-02-21T09:41:06;116.63;;;75.28;;
9942;SDS011;5010;45.080;7.634;2024-02-21T09:43:45;102.18;;;41.50;;
9942;SDS011;5010;45.080;7.634;2024-02-21T09:46:18;117.18;;;97.22;;
9942;SDS011;5010;45.080;7.634;2024-02-21T09:49:04;100.47;;;42.40;;
9942;SDS011;5010;45.080;7.634;2024-02-21T09:51:46;105.35;;;52.25;;
9942;SDS011;5010;45.080;7.634;2024-02-21T09:54:20;102.35;;;40.15;;
9942;SDS011;5010;45.080;7.634;2024-02-21T09:56:50;134.60;;;68.97;;
9942;SDS011;5010;45.080;7.634;2024-02-21T09:59:21;110.10;;;46.75;;
9942;SDS011;5010;45.080;7.634;2024-02-21T10:01:54;110.18;;;30.20;;
9942;SDS011;5010;45.080;7.634;2024-02-21T10:04:26;191.90;;;182.45;;
9942;SDS011;5010;45.080;7.634;2024-02-21T10:06:58;208.98;;;190.40;;
9942;SDS011;5010;45.080;7.634;2024-02-21T10:09:29;206.38;;;196.50;;
9942;SDS011;5010;45.080;7.634;2024-02-21T10:12:08;139.35;;;69.85;;
9942;SDS011;5010;45.080;7.634;2024-02-21T10:14:39;136.32;;;52.47;;
9942;SDS011;5010;45.080;7.634;2024-02-21T10:17:14;144.68;;;62.60;;
9942;SDS011;5010;45.080;7.634;2024-02-21T10:19:46;140.98;;;61.28;;
9942;SDS011;5010;45.080;7.634;2024-02-21T10:22:18;144.70;;;58.58;;
9942;SDS011;5010;45.080;7.634;2024-02-21T10:24:49;145.13;;;75.57;;
9942;SDS011;5010;45.080;7.634;2024-02-21T10:27:23;155.30;;;111.53;;
9942;SDS011;5010;45.080;7.634;2024-02-21T10:29:54;410.35;;;390.75;;
9942;SDS011;5010;45.080;7.634;2024-02-21T10:32:26;266.05;;;253.32;;
9942;SDS011;5010;45.080;7.634;2024-02-21T10:35:01;137.10;;;86.60;;
9942;SDS011;5010;45.080;7.634;2024-02-21T10:37:32;303.70;;;289.17;;
9942;SDS011;5010;45.080;7.634;2024-02-21T10:40:03;219.75;;;209.23;;
9942;SDS011;5010;45.080;7.634;2024-02-21T10:42:34;159.90;;;125.72;;
9942;SDS011;5010;45.080;7.634;2024-02-21T10:45:06;166.27;;;123.25;;
9942;SDS011;5010;45.080;7.634;2024-02-21T10:47:39;163.85;;;156.00;;
9942;SDS011;5010;45.080;7.634;2024-02-21T10:50:14;203.38;;;193.65;;
9942;SDS011;5010;45.080;7.634;2024-02-21T10:52:47;158.77;;;150.02;;
9942;SDS011;5010;45.080;7.634;2024-02-21T10:55:26;151.70;;;99.55;;
9942;SDS011;5010;45.080;7.634;2024-02-21T10:58:02;158.68;;;111.53;;
9942;SDS011;5010;45.080;7.634;2024-02-21T11:00:34;230.98;;;219.95;;
9942;SDS011;5010;45.080;7.634;2024-02-21T11:03:07;216.55;;;206.20;;
9942;SDS011;5010;45.080;7.634;2024-02-21T11:05:37;174.25;;;145.85;;
9942;SDS011;5010;45.080;7.634;2024-02-21T11:08:11;155.05;;;96.22;;
9942;SDS011;5010;45.080;7.634;2024-02-21T11:10:45;172.40;;;145.27;;
9942;SDS011;5010;45.080;7.634;2024-02-21T11:13:16;167.18;;;142.45;;
9942;SDS011;5010;45.080;7.634;2024-02-21T11:15:48;152.85;;;115.55;;
9942;SDS011;5010;45.080;7.634;2024-02-21T11:18:25;162.65;;;148.35;;
9942;SDS011;5010;45.080;7.634;2024-02-21T11:20:55;172.48;;;154.60;;
9942;SDS011;5010;45.080;7.634;2024-02-21T11:23:26;394.73;;;375.88;;
9942;SDS011;5010;45.080;7.634;2024-02-21T11:26:06;161.02;;;134.63;;
9942;SDS011;5010;45.080;7.634;2024-02-21T11:28:37;194.35;;;182.77;;
9942;SDS011;5010;45.080;7.634;2024-02-21T11:31:08;214.32;;;204.07;;
9942;SDS011;5010;45.080;7.634;2024-02-21T11:33:44;269.27;;;256.38;;
9942;SDS011;5010;45.080;7.634;2024-02-21T11:36:23;289.33;;;275.50;;
9942;SDS011;5010;45.080;7.634;2024-02-21T11:38:55;231.95;;;220.88;;
9942;SDS011;5010;45.080;7.634;2024-02-21T11:41:36;172.15;;;140.15;;
9942;SDS011;5010;45.080;7.634;2024-02-21T11:44:07;244.18;;;232.50;;
9942;SDS011;5010;45.080;7.634;2024-02-21T11:46:39;165.52;;;138.98;;
9942;SDS011;5010;45.080;7.634;2024-02-21T11:49:12;173.48;;;134.25;;
9942;SDS011;5010;45.080;7.634;2024-02-21T11:51:43;182.18;;;150.85;;
9942;SDS011;5010;45.080;7.634;2024-02-21T11:54:14;213.52;;;203.30;;
9942;SDS011;5010;45.080;7.634;2024-02-21T11:56:45;422.88;;;402.67;;
9942;SDS011;5010;45.080;7.634;2024-02-21T11:59:16;210.93;;;200.82;;
9942;SDS011;5010;45.080;7.634;2024-02-21T12:01:47;738.67;;;703.45;;
9942;SDS011;5010;45.080;7.634;2024-02-21T12:04:21;372.17;;;354.40;;
9942;SDS011;5010;45.080;7.634;2024-02-21T12:06:53;190.10;;;134.77;;
9942;SDS011;5010;45.080;7.634;2024-02-21T12:09:23;175.07;;;122.28;;
9942;SDS011;5010;45.080;7.634;2024-02-21T12:11:57;636.00;;;605.65;;
9942;SDS011;5010;45.080;7.634;2024-02-21T12:14:29;151.15;;;61.05;;
9942;SDS011;5010;45.080;7.634;2024-02-21T12:17:00;362.55;;;345.23;;
9942;SDS011;5010;45.080;7.634;2024-02-21T12:19:34;301.30;;;286.90;;
9942;SDS011;5010;45.080;7.634;2024-02-21T12:22:06;165.55;;;143.10;;
9942;SDS011;5010;45.080;7.634;2024-02-21T12:24:38;178.57;;;129.70;;
9942;SDS011;5010;45.080;7.634;2024-02-21T12:27:13;157.95;;;95.72;;
9942;SDS011;5010;45.080;7.634;2024-02-21T12:29:44;153.63;;;72.03;;
9942;SDS011;5010;45.080;7.634;2024-02-21T12:32:15;221.48;;;210.88;;
9942;SDS011;5010;45.080;7.634;2024-02-21T12:34:47;157.30;;;70.30;;
9942;SDS011;5010;45.080;7.634;2024-02-21T12:37:17;147.60;;;68.80;;
9942;SDS011;5010;45.080;7.634;2024-02-21T12:39:48;282.92;;;269.42;;
9942;SDS011;5010;45.080;7.634;2024-02-21T12:42:18;162.40;;;101.28;;
9942;SDS011;5010;45.080;7.634;2024-02-21T12:44:49;158.70;;;100.32;;
9942;SDS011;5010;45.080;7.634;2024-02-21T12:47:19;257.55;;;245.23;;
9942;SDS011;5010;45.080;7.634;2024-02-21T12:49:52;175.10;;;79.18;;
9942;SDS011;5010;45.080;7.634;2024-02-21T12:52:23;158.55;;;80.97;;
9942;SDS011;5010;45.080;7.634;2024-02-21T12:54:55;158.18;;;66.38;;
9942;SDS011;5010;45.080;7.634;2024-02-21T12:57:25;493.05;;;469.52;;
9942;SDS011;5010;45.080;7.634;2024-02-21T12:59:56;241.43;;;229.88;;
9942;SDS011;5010;45.080;7.634;2024-02-21T13:02:27;266.48;;;253.73;;
9942;SDS011;5010;45.080;7.634;2024-02-21T13:05:00;154.90;;;69.65;;
9942;SDS011;5010;45.080;7.634;2024-02-21T13:07:31;178.75;;;116.78;;
9942;SDS011;5010;45.080;7.634;2024-02-21T13:10:01;158.27;;;103.40;;
9942;SDS011;5010;45.080;7.634;2024-02-21T13:12:32;160.02;;;90.43;;
9942;SDS011;5010;45.080;7.634;2024-02-21T13:15:02;232.30;;;217.10;;
9942;SDS011;5010;45.080;7.634;2024-02-21T13:17:33;524.17;;;499.17;;
9942;SDS011;5010;45.080;7.634;2024-02-21T13:20:06;142.05;;;63.55;;
9942;SDS011;5010;45.080;7.634;2024-02-21T13:22:37;142.23;;;74.15;;
9942;SDS011;5010;45.080;7.634;2024-02-21T13:25:08;153.73;;;81.40;;
9942;SDS011;5010;45.080;7.634;2024-02-21T13:27:41;299.90;;;285.58;;
9942;SDS011;5010;45.080;7.634;2024-02-21T13:30:12;136.32;;;67.60;;
9942;SDS011;5010;45.080;7.634;2024-02-21T13:32:44;156.65;;;86.68;;
9942;SDS011;5010;45.080;7.634;2024-02-21T13:35:18;163.27;;;117.47;;
9942;SDS011;5010;45.080;7.634;2024-02-21T13:37:49;323.45;;;308.00;;
9942;SDS011;5010;45.080;7.634;2024-02-21T13:40:20;269.85;;;256.95;;
9942;SDS011;5010;45.080;7.634;2024-02-21T13:42:51;253.43;;;241.30;;
9942;SDS011;5010;45.080;7.634;2024-02-21T13:45:22;136.27;;;60.35;;
9942;SDS011;5010;45.080;7.634;2024-02-21T13:47:54;156.45;;;70.68;;
9942;SDS011;5010;45.080;7.634;2024-02-21T13:50:30;139.15;;;61.67;;
9942;SDS011;5010;45.080;7.634;2024-02-21T13:53:09;140.90;;;72.97;;
9942;SDS011;5010;45.080;7.634;2024-02-21T13:55:42;147.88;;;78.90;;
9942;SDS011;5010;45.080;7.634;2024-02-21T13:58:13;192.98;;;163.88;;
9942;SDS011;5010;45.080;7.634;2024-02-21T14:00:43;136.00;;;65.90;;
9942;SDS011;5010;45.080;7.634;2024-02-21T14:03:11;173.13;;;144.23;;
9942;SDS011;5010;45.080;7.634;2024-02-21T14:05:41;158.93;;;75.63;;
9942;SDS011;5010;45.080;7.634;2024-02-21T14:08:08;330.77;;;314.98;;
9942;SDS011;5010;45.080;7.634;2024-02-21T14:10:36;167.65;;;98.10;;
9942;SDS011;5010;45.080;7.634;2024-02-21T14:13:09;154.05;;;66.22;;
9942;SDS011;5010;45.080;7.634;2024-02-21T14:15:48;151.35;;;73.38;;
9942;SDS011;5010;45.080;7.634;2024-02-21T14:18:16;182.27;;;157.27;;
9942;SDS011;5010;45.080;7.634;2024-02-21T14:20:45;284.00;;;270.45;;
9942;SDS011;5010;45.080;7.634;2024-02-21T14:23:13;166.50;;;102.07;;
9942;SDS011;5010;45.080;7.634;2024-02-21T14:25:41;131.90;;;50.10;;
9942;SDS011;5010;45.080;7.634;2024-02-21T14:28:09;138.90;;;53.70;;
9942;SDS011;5010;45.080;7.634;2024-02-21T14:30:37;152.63;;;64.22;;
9942;SDS011;5010;45.080;7.634;2024-02-21T14:33:04;134.68;;;55.90;;
9942;SDS011;5010;45.080;7.634;2024-02-21T14:35:34;124.95;;;47.10;;
9942;SDS011;5010;45.080;7.634;2024-02-21T14:38:06;139.15;;;55.65;;
9942;SDS011;5010;45.080;7.634;2024-02-21T14:40:36;161.07;;;91.55;;
9942;SDS011;5010;45.080;7.634;2024-02-21T14:43:07;148.55;;;67.97;;
9942;SDS011;5010;45.080;7.634;2024-02-21T14:45:38;157.65;;;74.75;;
9942;SDS011;5010;45.080;7.634;2024-02-21T14:48:09;154.95;;;87.00;;
9942;SDS011;5010;45.080;7.634;2024-02-21T14:50:40;145.23;;;52.95;;
9942;SDS011;5010;45.080;7.634;2024-02-21T14:53:12;172.80;;;89.88;;
9942;SDS011;5010;45.080;7.634;2024-02-21T14:55:43;151.65;;;61.08;;
9942;SDS011;5010;45.080;7.634;2024-02-21T14:58:13;156.52;;;58.38;;
9942;SDS011;5010;45.080;7.634;2024-02-21T15:00:44;150.88;;;59.03;;
9942;SDS011;5010;45.080;7.634;2024-02-21T15:03:15;140.68;;;54.25;;
9942;SDS011;5010;45.080;7.634;2024-02-21T15:05:47;150.10;;;69.00;;
9942;SDS011;5010;45.080;7.634;2024-02-21T15:08:20;142.80;;;56.40;;